Terminal Aerodrome Forecast
Issued by NWS

Home | Current Version | Previous Version | Text Only | Print | Product List | Glossary On
Versions: 1 2 3 4 5 6 7 8 9 10 11 12 13 14 15
000
FTUS44 KLIX 182300 RRA
TAFMCB
TAF
KMCB 182340Z 1900/1924 00000KT P6SM SCT004 BKN027 OVC035
      TEMPO 1900/1904 BKN004
     FM190400 00000KT 5SM BR BKN020
      TEMPO 1908/1912 2SM SHRA BR BKN010
     FM191200 08006KT 4SM RA BR SCT007 OVC015
      TEMPO 1914/1918 1SM SHRA BR OVC007
     FM191800 08007KT 1SM SHRA BKN010=

USA.gov is the U.S. government's official web portal to all federal, state and local government web resources and services.